Time;durP1;ratioP1;P1;durP2;ratioP2;P2;SDS_P1;SDS_P2;PMS_P1;PMS_P2;Temp;Humidity;BMP_temperature;BMP_pressure;BME280_temperature;BME280_humidity;BME280_pressure;Samples;Min_cycle;Max_cycle;Signal;HPM_P1;HPM_P2
2024/02/09 00:00:54;;;;;;;11.13;10.83;;;21.60;56.70;;;;;;5043035;28;20451;-69
2024/02/09 00:03:21;;;;;;;11.20;10.80;;;21.60;56.70;;;;;;5039126;28;20515;-69
2024/02/09 00:05:50;;;;;;;11.50;11.10;;;21.60;56.70;;;;;;5040168;28;21025;-69
2024/02/09 00:08:19;;;;;;;11.00;10.40;;;21.60;56.70;;;;;;5044620;28;20531;-70
2024/02/09 00:10:47;;;;;;;11.20;10.70;;;21.60;56.80;;;;;;5043598;28;20479;-69
2024/02/09 00:13:14;;;;;;;10.10;9.80;;;21.60;56.80;;;;;;5040185;28;20537;-69
2024/02/09 00:15:43;;;;;;;10.60;10.30;;;21.60;56.80;;;;;;5037910;28;20928;-69
2024/02/09 00:18:11;;;;;;;10.20;9.90;;;21.60;56.80;;;;;;5044381;28;20510;-69
2024/02/09 00:20:38;;;;;;;11.07;10.67;;;21.60;56.80;;;;;;5044696;28;20631;-69
2024/02/09 00:23:05;;;;;;;10.70;10.20;;;21.50;56.70;;;;;;5032862;28;20480;-69
2024/02/09 00:25:33;;;;;;;11.37;11.07;;;21.60;56.80;;;;;;5036773;28;20538;-69
2024/02/09 00:28:00;;;;;;;11.70;11.30;;;21.60;56.80;;;;;;5043553;28;20483;-69
2024/02/09 00:30:27;;;;;;;11.37;10.97;;;21.60;56.80;;;;;;5044138;28;20483;-70
2024/02/09 00:32:54;;;;;;;9.83;9.60;;;21.50;56.70;;;;;;5042148;28;20440;-70
2024/02/09 00:35:23;;;;;;;10.60;10.20;;;21.50;56.80;;;;;;5027012;28;20498;-70
2024/02/09 00:37:55;;;;;;;10.37;10.03;;;21.60;56.90;;;;;;5042710;28;20440;-70
2024/02/09 00:40:23;;;;;;;10.60;10.30;;;21.50;56.80;;;;;;5040657;28;20460;-70
2024/02/09 00:42:52;;;;;;;10.97;10.60;;;21.50;56.80;;;;;;5041838;28;20477;-69
2024/02/09 00:45:19;;;;;;;10.00;9.80;;;21.50;56.90;;;;;;5039263;28;20469;-69
2024/02/09 00:47:47;;;;;;;11.20;10.80;;;21.50;56.90;;;;;;5041382;28;20913;-68
2024/02/09 00:50:17;;;;;;;10.30;9.70;;;21.50;56.90;;;;;;5044192;28;20527;-69
2024/02/09 00:52:48;;;;;;;11.37;11.03;;;21.50;56.90;;;;;;5042544;28;20519;-69
2024/02/09 00:55:16;;;;;;;10.33;10.03;;;21.50;56.90;;;;;;5035705;28;20475;-69
2024/02/09 00:57:43;;;;;;;11.17;10.87;;;21.50;56.90;;;;;;5043298;28;20506;-71
2024/02/09 01:00:12;;;;;;;10.30;10.00;;;21.50;57.00;;;;;;5040539;28;20444;-69
2024/02/09 01:02:40;;;;;;;10.57;10.30;;;21.50;57.00;;;;;;5046561;28;20483;-69
2024/02/09 01:05:13;;;;;;;10.50;10.20;;;21.50;57.00;;;;;;5032493;28;20476;-71
2024/02/09 01:07:40;;;;;;;10.73;10.40;;;21.50;57.00;;;;;;5040290;28;20477;-69
2024/02/09 01:10:08;;;;;;;11.13;10.83;;;21.50;57.10;;;;;;5032144;28;20447;-69
2024/02/09 02:45:49;;;;;;;10.17;9.87;;;21.30;57.70;;;;;;5043131;28;20464;-71
2024/02/09 03:04:54;;;;;;;10.60;10.30;;;21.30;57.70;;;;;;5044584;28;20509;-70
2024/02/09 03:07:21;;;;;;;11.37;10.87;;;21.30;57.80;;;;;;5042310;28;20472;-70
2024/02/09 03:09:49;;;;;;;11.57;11.17;;;21.30;57.80;;;;;;5041942;28;20473;-70
2024/02/09 03:12:17;;;;;;;11.83;11.53;;;21.30;57.90;;;;;;5042268;28;20492;-70
2024/02/09 03:14:44;;;;;;;11.53;11.23;;;21.30;57.90;;;;;;5042315;28;21054;-71
2024/02/09 03:17:11;;;;;;;11.87;11.47;;;21.30;57.90;;;;;;5045408;28;20472;-70
2024/02/09 03:19:38;;;;;;;11.83;11.53;;;21.30;58.00;;;;;;5045674;28;20476;-70
2024/02/09 03:22:05;;;;;;;10.80;10.50;;;21.30;58.10;;;;;;5043233;28;20482;-71
2024/02/09 03:24:32;;;;;;;12.37;11.97;;;21.30;58.10;;;;;;5045220;28;20440;-70
2024/02/09 03:27:00;;;;;;;11.30;11.00;;;21.30;58.10;;;;;;5043618;28;20867;-70
2024/02/09 03:29:30;;;;;;;13.17;12.80;;;21.30;58.00;;;;;;5037012;28;20473;-71
2024/02/09 03:31:57;;;;;;;12.50;12.20;;;21.30;58.00;;;;;;5043522;28;20445;-71
2024/02/09 03:34:25;;;;;;;12.63;12.33;;;21.30;58.00;;;;;;5045350;28;20468;-71
2024/02/09 03:36:54;;;;;;;13.40;12.90;;;21.30;58.00;;;;;;5044250;28;20484;-70
2024/02/09 03:39:22;;;;;;;13.47;12.97;;;21.30;58.00;;;;;;5040270;28;20484;-71
2024/02/09 03:41:48;;;;;;;13.10;12.60;;;21.30;58.00;;;;;;5041765;28;20437;-71
2024/02/09 03:44:17;;;;;;;12.30;11.90;;;21.30;58.00;;;;;;5045073;28;20464;-70
2024/02/09 03:46:44;;;;;;;12.60;12.20;;;21.30;58.00;;;;;;5045255;28;20494;-72
2024/02/09 03:49:11;;;;;;;12.17;11.80;;;21.20;57.90;;;;;;5038962;28;20452;-68
2024/02/09 03:51:38;;;;;;;12.83;12.43;;;21.30;58.00;;;;;;5043241;28;20495;-69
2024/02/09 03:54:05;;;;;;;12.17;11.80;;;21.30;58.00;;;;;;5031076;28;20473;-69
2024/02/09 03:56:32;;;;;;;12.00;11.40;;;21.30;58.00;;;;;;5044746;28;20508;-71
2024/02/09 03:58:59;;;;;;;12.00;11.70;;;21.30;58.00;;;;;;5029315;28;20960;-69
2024/02/09 04:01:28;;;;;;;11.90;11.60;;;21.30;58.00;;;;;;5053577;28;20446;-69
2024/02/09 04:03:53;;;;;;;12.40;12.00;;;21.30;58.00;;;;;;5053329;28;20865;-70
2024/02/09 04:06:24;;;;;;;12.53;12.20;;;21.30;58.00;;;;;;5053214;28;20484;-70
2024/02/09 04:08:51;;;;;;;13.10;12.60;;;21.30;58.00;;;;;;5017074;28;20206;-70
2024/02/09 04:11:22;;;;;;;12.87;12.47;;;21.30;58.00;;;;;;5013731;28;20469;-69
2024/02/09 04:13:50;;;;;;;13.17;12.67;;;21.30;58.00;;;;;;5013737;28;20488;-69
2024/02/09 04:16:19;;;;;;;13.03;12.63;;;21.30;58.00;;;;;;5013258;28;20465;-70
2024/02/09 04:18:48;;;;;;;12.30;12.00;;;21.30;58.00;;;;;;5030234;28;20448;-69
2024/02/09 04:21:16;;;;;;;12.47;12.07;;;21.20;58.00;;;;;;5033135;28;20485;-70
2024/02/09 04:23:43;;;;;;;12.80;12.40;;;21.30;58.10;;;;;;5033106;28;20441;-70
2024/02/09 04:26:10;;;;;;;11.93;11.53;;;21.20;58.00;;;;;;5033111;28;20472;-69
2024/02/09 04:28:37;;;;;;;12.50;12.00;;;21.30;58.10;;;;;;5032765;28;20447;-70
2024/02/09 04:31:05;;;;;;;12.77;12.27;;;21.30;58.20;;;;;;5032927;28;20875;-69
2024/02/09 04:33:33;;;;;;;12.70;12.30;;;21.30;58.30;;;;;;5032976;28;20998;-71
2024/02/09 04:36:01;;;;;;;12.93;12.43;;;21.30;58.50;;;;;;5032699;28;20500;-69
2024/02/09 04:38:28;;;;;;;13.50;13.00;;;21.30;58.70;;;;;;5031723;28;20513;-69
2024/02/09 04:40:55;;;;;;;13.07;12.67;;;21.20;58.70;;;;;;5032609;28;20860;-70
2024/02/09 04:43:23;;;;;;;12.50;12.10;;;21.20;58.60;;;;;;5032661;28;20450;-69
2024/02/09 04:45:51;;;;;;;12.37;11.97;;;21.20;58.60;;;;;;5032491;28;21015;-69
2024/02/09 04:48:18;;;;;;;11.53;11.23;;;21.20;58.60;;;;;;5032367;28;20517;-69
2024/02/09 04:50:46;;;;;;;11.07;10.70;;;21.30;58.70;;;;;;5032452;28;20480;-69
2024/02/09 04:53:15;;;;;;;11.80;11.50;;;21.20;58.70;;;;;;5032392;28;20454;-69
2024/02/09 04:55:42;;;;;;;11.83;11.53;;;21.30;58.80;;;;;;5032493;28;20806;-69
2024/02/09 04:58:09;;;;;;;12.50;12.00;;;21.20;58.70;;;;;;5032065;28;20519;-71
2024/02/09 05:00:36;;;;;;;12.03;11.73;;;21.20;58.70;;;;;;5032234;28;20483;-69
2024/02/09 05:03:04;;;;;;;12.23;11.50;;;21.30;58.80;;;;;;5032317;28;20484;-68
2024/02/09 05:05:32;;;;;;;12.37;11.80;;;21.30;58.80;;;;;;5029191;28;20465;-69
2024/02/09 05:08:00;;;;;;;12.70;12.30;;;21.30;58.80;;;;;;5012841;28;20444;-72
2024/02/09 05:10:28;;;;;;;12.43;12.03;;;21.20;58.70;;;;;;5012621;28;20468;-68
2024/02/09 05:13:02;;;;;;;12.20;11.90;;;21.30;58.80;;;;;;5012453;28;20504;-69
2024/02/09 05:15:29;;;;;;;13.20;12.53;;;21.30;58.80;;;;;;5013530;28;21024;-68
2024/02/09 05:17:56;;;;;;;11.80;11.50;;;21.30;58.80;;;;;;5012291;28;20504;-69
2024/02/09 05:20:23;;;;;;;12.10;11.80;;;21.30;58.80;;;;;;5012267;28;20448;-68
2024/02/09 05:22:50;;;;;;;12.83;12.20;;;21.30;58.80;;;;;;5012255;28;20470;-69
2024/02/09 05:25:17;;;;;;;12.23;11.73;;;21.30;58.80;;;;;;5012157;28;20524;-68
2024/02/09 05:27:47;;;;;;;12.93;12.27;;;21.30;58.70;;;;;;5012458;28;20483;-69
2024/02/09 05:30:15;;;;;;;11.73;11.43;;;21.30;58.40;;;;;;5012350;28;20437;-70
2024/02/09 05:32:42;;;;;;;12.33;12.00;;;21.30;58.50;;;;;;5012043;28;20480;-72
2024/02/09 05:35:09;;;;;;;13.90;13.20;;;21.40;58.50;;;;;;5012339;28;20903;-69
2024/02/09 05:37:36;;;;;;;15.27;14.17;;;21.40;58.50;;;;;;5030824;28;20516;-66
2024/02/09 05:40:03;;;;;;;14.90;13.43;;;21.40;58.80;;;;;;5031902;28;20484;-63
2024/02/09 05:42:30;;;;;;;15.43;14.40;;;21.40;62.10;;;;;;5031911;28;20440;-65
2024/02/09 05:44:58;;;;;;;13.73;12.87;;;21.40;64.20;;;;;;5031530;28;20500;-65
2024/02/09 05:47:30;;;;;;;13.97;13.30;;;21.40;65.90;;;;;;5030275;28;20491;-65
2024/02/09 05:49:58;;;;;;;13.67;12.77;;;21.40;67.20;;;;;;5035617;28;20456;-65
2024/02/09 05:52:26;;;;;;;15.67;14.67;;;21.40;67.10;;;;;;5032319;28;20528;-66
2024/02/09 05:54:53;;;;;;;14.23;13.17;;;21.40;67.80;;;;;;5035566;28;20523;-66
2024/02/09 05:57:20;;;;;;;13.50;12.53;;;21.40;66.90;;;;;;5035298;28;20848;-66
2024/02/09 05:59:47;;;;;;;13.80;12.97;;;21.40;65.90;;;;;;5035491;28;20876;-66
2024/02/09 06:02:17;;;;;;;15.40;14.33;;;21.50;65.60;;;;;;5035277;28;20441;-66
2024/02/09 06:04:44;;;;;;;14.00;13.40;;;21.50;65.10;;;;;;5035197;28;20463;-66
2024/02/09 06:07:11;;;;;;;14.00;12.60;;;21.50;64.70;;;;;;5035286;28;20495;-66
2024/02/09 06:09:39;;;;;;;13.30;12.70;;;21.50;64.30;;;;;;5035212;28;20480;-66
2024/02/09 06:12:07;;;;;;;15.43;14.13;;;21.50;64.00;;;;;;5035201;28;20452;-66
2024/02/09 06:14:35;;;;;;;16.03;14.67;;;21.50;63.60;;;;;;5035040;28;20481;-66
2024/02/09 06:17:04;;;;;;;16.27;15.17;;;21.60;63.40;;;;;;5035005;28;20520;-66
2024/02/09 06:19:32;;;;;;;14.50;13.83;;;21.60;63.10;;;;;;5035178;28;20806;-66
2024/02/09 06:21:59;;;;;;;14.73;13.93;;;21.60;62.80;;;;;;5034911;28;20929;-66
2024/02/09 06:24:26;;;;;;;14.33;13.63;;;21.60;62.50;;;;;;5034897;28;20468;-66
2024/02/09 06:26:53;;;;;;;15.33;14.13;;;21.60;62.30;;;;;;5034773;28;20501;-66
2024/02/09 06:29:21;;;;;;;14.70;13.83;;;21.60;62.00;;;;;;5034876;28;20481;-66
2024/02/09 06:31:48;;;;;;;14.63;14.03;;;21.60;61.80;;;;;;5034856;28;20452;-66
2024/02/09 06:34:15;;;;;;;14.50;13.80;;;21.60;61.60;;;;;;5034695;28;20473;-66
2024/02/09 06:36:44;;;;;;;14.53;14.00;;;21.70;61.50;;;;;;5034693;28;20496;-66
2024/02/09 06:39:11;;;;;;;14.93;14.33;;;21.70;61.20;;;;;;5034776;28;20513;-66
2024/02/09 06:41:38;;;;;;;14.10;13.50;;;21.70;61.00;;;;;;5034635;28;20446;-66
2024/02/09 06:44:05;;;;;;;12.90;12.50;;;21.70;60.80;;;;;;5034461;28;20476;-66
2024/02/09 06:46:32;;;;;;;14.77;13.67;;;21.70;60.60;;;;;;5034679;28;20507;-66
2024/02/09 06:49:00;;;;;;;13.60;12.80;;;21.70;60.50;;;;;;5034543;28;20477;-66
2024/02/09 06:51:27;;;;;;;13.80;13.20;;;21.70;60.30;;;;;;5034444;28;20452;-66
2024/02/09 06:53:56;;;;;;;15.13;13.93;;;21.70;60.20;;;;;;5034353;28;21133;-66
2024/02/09 06:56:23;;;;;;;13.97;13.27;;;21.70;60.00;;;;;;5034289;28;20469;-66
2024/02/09 06:58:52;;;;;;;12.83;12.23;;;21.70;59.90;;;;;;5034247;28;21034;-66
2024/02/09 07:01:20;;;;;;;14.10;13.50;;;21.70;59.80;;;;;;5033818;28;20445;-66
2024/02/09 07:03:49;;;;;;;12.30;11.90;;;21.80;59.80;;;;;;5034335;28;20801;-66
2024/02/09 07:06:16;;;;;;;12.70;12.30;;;21.70;59.60;;;;;;5034123;28;20461;-66
2024/02/09 07:08:51;;;;;;;11.93;11.53;;;21.80;59.60;;;;;;5034381;28;20528;-66
2024/02/09 07:11:19;;;;;;;12.13;11.63;;;21.80;59.50;;;;;;5034014;28;21003;-66
2024/02/09 07:13:47;;;;;;;12.60;12.07;;;21.80;59.40;;;;;;5034004;28;20490;-66
2024/02/09 07:16:14;;;;;;;15.53;14.67;;;21.80;59.30;;;;;;5033909;28;20492;-66
2024/02/09 07:18:42;;;;;;;13.13;12.63;;;21.80;59.20;;;;;;5033919;28;20512;-66
2024/02/09 07:21:09;;;;;;;14.00;13.00;;;21.80;59.10;;;;;;5033923;28;20478;-66
2024/02/09 07:23:37;;;;;;;12.10;11.70;;;21.80;59.00;;;;;;5033790;28;20576;-66
2024/02/09 07:26:04;;;;;;;13.43;12.93;;;21.80;58.90;;;;;;5033800;28;20461;-66
2024/02/09 07:28:32;;;;;;;13.30;12.80;;;21.80;58.80;;;;;;5033936;28;20481;-66
2024/02/09 07:30:59;;;;;;;14.83;13.83;;;21.80;58.80;;;;;;5033704;28;20469;-66
2024/02/09 07:33:26;;;;;;;14.27;13.67;;;21.80;58.70;;;;;;5033592;28;20441;-66
2024/02/09 07:35:53;;;;;;;14.63;13.80;;;21.80;58.60;;;;;;5033569;28;21030;-66
2024/02/09 07:38:19;;;;;;;14.17;13.67;;;21.80;58.50;;;;;;5033657;28;20509;-66
2024/02/09 07:40:46;;;;;;;12.83;12.43;;;21.80;58.50;;;;;;5033563;28;20472;-66
2024/02/09 07:43:13;;;;;;;13.13;12.73;;;21.80;58.40;;;;;;5033595;28;20479;-66
2024/02/09 07:45:42;;;;;;;12.60;12.10;;;21.80;58.30;;;;;;5033330;28;20567;-66
2024/02/09 07:48:08;;;;;;;12.80;12.40;;;21.80;58.20;;;;;;5033740;28;20437;-66
2024/02/09 07:50:41;;;;;;;12.77;12.37;;;21.80;58.10;;;;;;5033267;28;20472;-66
2024/02/09 07:53:08;;;;;;;13.13;12.63;;;21.80;58.10;;;;;;5033323;28;20943;-66
2024/02/09 07:55:35;;;;;;;13.70;13.10;;;21.80;58.00;;;;;;5033318;28;20488;-66
2024/02/09 07:58:02;;;;;;;13.27;12.80;;;21.80;57.90;;;;;;5033280;28;20516;-66
2024/02/09 08:00:29;;;;;;;12.80;12.43;;;21.80;57.90;;;;;;5033077;28;20876;-66
2024/02/09 08:02:57;;;;;;;11.70;11.40;;;21.80;57.80;;;;;;5033093;28;20469;-66
2024/02/09 08:05:24;;;;;;;11.80;11.40;;;21.80;57.80;;;;;;5033082;28;20493;-66
2024/02/09 08:07:52;;;;;;;12.40;12.10;;;21.80;57.70;;;;;;5033122;28;20463;-66
2024/02/09 08:10:19;;;;;;;14.40;13.87;;;21.80;57.60;;;;;;5032952;28;20441;-66
2024/02/09 08:12:46;;;;;;;13.77;13.30;;;21.80;58.10;;;;;;5031888;28;20475;-66
2024/02/09 08:15:14;;;;;;;13.40;12.90;;;21.80;57.60;;;;;;5032801;28;20519;-66
2024/02/09 08:17:45;;;;;;;13.60;13.20;;;21.80;57.50;;;;;;5032816;28;20944;-66
2024/02/09 08:20:13;;;;;;;14.00;13.40;;;21.80;57.50;;;;;;5032932;28;20528;-66
2024/02/09 08:22:44;;;;;;;13.67;13.27;;;21.80;57.40;;;;;;5032698;28;20476;-66
2024/02/09 08:25:11;;;;;;;14.33;13.57;;;21.80;57.40;;;;;;5032677;28;20461;-66
2024/02/09 08:27:38;;;;;;;13.40;13.00;;;21.90;57.50;;;;;;5032699;28;20484;-66
2024/02/09 08:30:08;;;;;;;14.10;13.60;;;21.90;57.40;;;;;;5032508;28;20564;-66
2024/02/09 08:32:35;;;;;;;14.00;13.27;;;21.80;57.40;;;;;;5032594;28;20864;-66
2024/02/09 08:35:03;;;;;;;13.43;13.03;;;21.90;57.40;;;;;;5032636;28;20465;-66
2024/02/09 08:37:31;;;;;;;13.90;13.30;;;21.90;57.40;;;;;;5032525;28;20468;-66
2024/02/09 08:39:58;;;;;;;13.83;13.43;;;21.90;57.40;;;;;;5032620;28;20827;-66
2024/02/09 08:42:26;;;;;;;13.80;13.40;;;21.90;57.30;;;;;;5032346;28;20944;-66
2024/02/09 08:44:53;;;;;;;14.10;13.60;;;21.90;57.30;;;;;;5032195;28;20687;-66
2024/02/09 08:47:21;;;;;;;15.60;15.10;;;21.90;57.50;;;;;;5032380;28;20465;-66
2024/02/09 08:49:48;;;;;;;13.83;13.33;;;21.90;57.20;;;;;;5032141;28;20929;-66
2024/02/09 08:52:17;;;;;;;14.77;14.23;;;21.90;57.20;;;;;;5032170;28;20477;-66
2024/02/09 08:54:46;;;;;;;14.40;14.00;;;21.90;57.10;;;;;;5032045;28;20948;-66
2024/02/09 08:57:14;;;;;;;14.37;13.97;;;21.90;57.10;;;;;;5032209;28;20447;-66
2024/02/09 08:59:41;;;;;;;13.73;13.33;;;21.90;57.10;;;;;;5032103;28;20480;-66
2024/02/09 09:02:10;;;;;;;16.33;15.63;;;21.90;57.10;;;;;;5032025;28;20451;-66
2024/02/09 09:04:37;;;;;;;14.70;14.27;;;22.00;57.10;;;;;;5031948;28;20843;-66
2024/02/09 09:07:04;;;;;;;13.30;12.90;;;21.90;57.00;;;;;;5032168;28;20480;-66
2024/02/09 09:09:31;;;;;;;14.00;13.60;;;22.00;57.00;;;;;;5031960;28;20496;-66
2024/02/09 09:12:00;;;;;;;14.07;13.67;;;22.00;57.00;;;;;;5031976;28;20484;-66
2024/02/09 09:14:27;;;;;;;13.23;12.83;;;22.00;57.00;;;;;;5031809;28;20480;-66
2024/02/09 09:16:54;;;;;;;13.70;13.33;;;22.00;57.00;;;;;;5031796;28;20836;-66
2024/02/09 09:19:21;;;;;;;14.70;14.27;;;22.00;56.90;;;;;;5031691;28;20512;-66
2024/02/09 09:21:48;;;;;;;13.50;13.10;;;22.00;56.90;;;;;;5031758;28;20476;-66
2024/02/09 09:24:16;;;;;;;14.20;13.80;;;22.00;56.90;;;;;;5031401;28;20576;-66
2024/02/09 09:26:42;;;;;;;13.40;13.10;;;22.00;56.80;;;;;;5031654;28;20465;-66
2024/02/09 09:29:12;;;;;;;14.10;13.67;;;22.00;56.80;;;;;;5031654;28;20477;-66
2024/02/09 09:31:39;;;;;;;13.43;13.13;;;22.00;56.70;;;;;;5031669;28;20481;-66
2024/02/09 09:34:08;;;;;;;14.87;14.37;;;22.00;57.30;;;;;;5031507;28;20449;-66
2024/02/09 09:36:35;;;;;;;14.00;13.50;;;22.00;56.70;;;;;;5031453;28;20527;-65
2024/02/09 09:39:06;;;;;;;14.03;13.63;;;22.00;56.70;;;;;;5031480;28;20520;-66
2024/02/09 09:41:35;;;;;;;14.30;13.80;;;22.00;56.70;;;;;;5031538;28;20445;-66
2024/02/09 09:44:03;;;;;;;14.53;14.13;;;22.00;56.60;;;;;;5031446;28;20476;-66
2024/02/09 09:46:31;;;;;;;15.30;14.87;;;22.00;57.10;;;;;;5031978;28;20908;-65
2024/02/09 09:49:00;;;;;;;14.50;14.10;;;22.00;56.60;;;;;;5031556;28;20472;-66
2024/02/09 09:51:33;;;;;;;14.90;14.47;;;22.00;56.60;;;;;;5031586;28;20473;-66
2024/02/09 09:54:01;;;;;;;16.00;15.43;;;22.00;56.50;;;;;;5031646;28;20499;-66
2024/02/09 09:56:29;;;;;;;15.77;15.37;;;22.00;56.50;;;;;;5031518;28;20472;-66
2024/02/09 09:58:56;;;;;;;14.30;13.90;;;22.00;56.40;;;;;;5031530;28;20535;-66
2024/02/09 10:01:24;;;;;;;15.07;14.67;;;22.10;56.50;;;;;;5031441;28;20528;-66
2024/02/09 10:03:55;;;;;;;14.23;13.83;;;22.10;56.50;;;;;;5031380;28;20441;-67
2024/02/09 10:06:23;;;;;;;14.20;13.80;;;22.10;56.40;;;;;;5031681;28;20819;-66
2024/02/09 10:08:50;;;;;;;14.73;14.23;;;22.10;56.40;;;;;;5031533;28;20449;-66
2024/02/09 10:11:18;;;;;;;14.10;13.70;;;22.00;56.30;;;;;;5031490;28;20481;-67
2024/02/09 10:13:45;;;;;;;13.80;13.40;;;22.00;56.30;;;;;;5031294;28;20433;-67
2024/02/09 10:16:12;;;;;;;15.07;14.57;;;22.10;56.40;;;;;;5031435;28;20484;-66
2024/02/09 10:18:40;;;;;;;14.13;13.83;;;22.10;56.40;;;;;;5031238;28;20519;-66
2024/02/09 10:21:09;;;;;;;14.20;13.80;;;22.10;56.30;;;;;;5031239;28;20479;-67
2024/02/09 10:23:37;;;;;;;14.40;14.00;;;22.10;56.30;;;;;;5031234;28;20443;-66
2024/02/09 10:26:05;;;;;;;14.20;13.80;;;22.10;56.30;;;;;;5031378;28;21023;-66
2024/02/09 10:28:33;;;;;;;14.17;13.77;;;22.10;56.20;;;;;;5031372;28;20555;-66
2024/02/09 10:31:00;;;;;;;13.90;13.60;;;22.10;56.20;;;;;;5031682;28;20441;-67
2024/02/09 10:33:27;;;;;;;14.70;14.30;;;22.10;56.20;;;;;;5031230;28;20468;-65
2024/02/09 10:35:55;;;;;;;15.30;14.90;;;22.10;56.20;;;;;;5032958;28;20492;-66
2024/02/09 10:38:26;;;;;;;14.80;14.40;;;22.10;56.10;;;;;;5034747;28;20472;-66
2024/02/09 10:40:55;;;;;;;14.00;13.60;;;22.10;56.10;;;;;;5034761;28;20448;-66
2024/02/09 10:43:23;;;;;;;15.23;14.83;;;22.10;56.10;;;;;;5034729;28;20480;-66
2024/02/09 10:45:51;;;;;;;14.20;13.90;;;22.10;56.10;;;;;;5034585;28;20485;-65
2024/02/09 10:48:22;;;;;;;14.67;14.27;;;22.10;56.00;;;;;;5034672;28;20816;-66
2024/02/09 10:50:53;;;;;;;15.67;15.17;;;22.10;56.00;;;;;;5034626;28;20441;-66
2024/02/09 10:53:29;;;;;;;14.73;14.23;;;22.10;56.00;;;;;;5034786;28;20452;-67
2024/02/09 10:56:03;;;;;;;14.50;14.10;;;22.10;56.00;;;;;;5034501;28;20559;-66
2024/02/09 10:58:34;;;;;;;14.93;14.53;;;22.10;56.00;;;;;;5034713;28;20480;-65
2024/02/09 11:01:04;;;;;;;14.00;13.70;;;22.10;56.00;;;;;;5034321;28;20445;-66
2024/02/09 11:03:31;;;;;;;15.07;14.67;;;22.10;55.90;;;;;;5034473;28;20531;-66
2024/02/09 11:06:02;;;;;;;14.33;13.93;;;22.10;55.90;;;;;;5034274;28;20493;-66
2024/02/09 11:08:33;;;;;;;14.43;14.03;;;22.10;55.90;;;;;;5034287;28;20936;-66
2024/02/09 11:11:01;;;;;;;14.00;13.60;;;22.10;55.90;;;;;;5034336;28;20811;-66
2024/02/09 11:13:28;;;;;;;13.93;13.63;;;22.10;55.90;;;;;;5034213;28;20484;-66
2024/02/09 11:15:56;;;;;;;14.90;14.50;;;22.10;55.90;;;;;;5034052;28;20467;-66
2024/02/09 11:18:29;;;;;;;14.60;14.20;;;22.20;56.00;;;;;;5034130;28;20548;-66
2024/02/09 11:21:00;;;;;;;14.90;14.50;;;22.10;55.90;;;;;;5034174;28;20709;-66
2024/02/09 11:23:28;;;;;;;14.70;14.30;;;22.10;55.90;;;;;;5034142;28;20483;-65
2024/02/09 11:26:00;;;;;;;14.00;13.60;;;22.10;55.80;;;;;;5033962;28;20826;-67
2024/02/09 11:28:27;;;;;;;14.17;13.83;;;22.10;55.80;;;;;;5033910;28;20956;-66
2024/02/09 11:30:56;;;;;;;14.97;14.57;;;22.20;56.00;;;;;;5033846;28;20469;-66
2024/02/09 11:33:23;;;;;;;15.00;14.50;;;22.20;55.90;;;;;;5033813;28;20499;-66
2024/02/09 11:35:50;;;;;;;14.70;14.30;;;22.20;55.90;;;;;;5033723;28;20493;-65
2024/02/09 11:38:20;;;;;;;14.83;14.43;;;22.20;55.80;;;;;;5033744;28;21039;-66
2024/02/09 11:40:49;;;;;;;14.80;14.40;;;22.20;55.90;;;;;;5033469;28;20480;-66
2024/02/09 11:43:17;;;;;;;14.20;13.80;;;22.20;55.80;;;;;;5033596;28;20529;-66
2024/02/09 11:45:44;;;;;;;13.93;13.63;;;22.20;55.80;;;;;;5033323;28;20915;-66
2024/02/09 11:48:12;;;;;;;14.40;14.00;;;22.20;55.80;;;;;;5033549;28;20800;-66
2024/02/09 11:50:40;;;;;;;15.80;15.37;;;22.20;55.70;;;;;;5033489;28;20441;-67
2024/02/09 11:53:08;;;;;;;14.83;14.43;;;22.20;55.70;;;;;;5033592;28;20441;-67
2024/02/09 11:55:39;;;;;;;13.90;13.60;;;22.20;55.70;;;;;;5033460;28;20493;-66
2024/02/09 11:58:07;;;;;;;14.20;13.80;;;22.20;55.70;;;;;;5033433;28;20451;-66
2024/02/09 12:00:36;;;;;;;14.50;14.10;;;22.20;55.70;;;;;;5033116;28;20480;-66
2024/02/09 12:03:03;;;;;;;14.60;14.20;;;22.20;55.70;;;;;;5033187;28;20449;-67
2024/02/09 12:05:30;;;;;;;13.50;13.20;;;22.20;55.60;;;;;;5033061;28;20556;-66
2024/02/09 12:07:57;;;;;;;14.53;14.13;;;22.20;55.60;;;;;;5032958;28;20476;-66
2024/02/09 12:10:24;;;;;;;14.53;14.13;;;22.20;55.60;;;;;;5033034;28;20468;-66
2024/02/09 12:12:51;;;;;;;15.27;14.87;;;22.20;55.60;;;;;;5033182;28;20484;-66
2024/02/09 12:15:19;;;;;;;14.60;14.20;;;22.20;55.60;;;;;;5032971;28;20465;-66
2024/02/09 12:17:48;;;;;;;15.20;14.70;;;22.20;55.60;;;;;;5032831;28;20944;-65
2024/02/09 12:20:15;;;;;;;14.53;14.13;;;22.20;55.60;;;;;;5032841;28;20685;-66
2024/02/09 12:22:44;;;;;;;15.13;14.53;;;22.20;55.50;;;;;;5032901;28;20501;-66
2024/02/09 12:25:13;;;;;;;15.23;14.83;;;22.30;55.60;;;;;;5032642;28;20543;-65
2024/02/09 12:27:40;;;;;;;14.57;14.17;;;22.20;55.50;;;;;;5032704;28;20449;-66
2024/02/09 12:30:09;;;;;;;13.97;13.67;;;22.20;55.50;;;;;;5032564;28;20443;-66
2024/02/09 12:32:37;;;;;;;14.10;13.77;;;22.30;55.50;;;;;;5032832;28;20457;-66
2024/02/09 12:35:05;;;;;;;13.77;13.47;;;22.20;55.50;;;;;;5032813;28;20471;-67
2024/02/09 12:37:32;;;;;;;14.53;14.17;;;22.20;55.40;;;;;;5032515;28;20918;-66
2024/02/09 12:40:03;;;;;;;13.80;13.40;;;22.20;55.40;;;;;;5032483;28;20512;-66
2024/02/09 12:42:32;;;;;;;15.23;14.83;;;22.20;55.40;;;;;;5032507;28;20445;-66
2024/02/09 12:44:59;;;;;;;14.50;14.10;;;22.20;55.40;;;;;;5032138;28;20979;-66
2024/02/09 12:47:26;;;;;;;14.20;13.80;;;22.20;55.30;;;;;;5032463;28;20477;-66
2024/02/09 12:49:54;;;;;;;14.30;13.90;;;22.20;55.40;;;;;;5032255;28;20435;-66
2024/02/09 12:52:25;;;;;;;14.40;14.00;;;22.30;55.40;;;;;;5032494;28;20445;-66
2024/02/09 12:54:54;;;;;;;14.30;13.90;;;22.30;55.40;;;;;;5032241;28;20532;-67
2024/02/09 12:57:21;;;;;;;14.17;13.80;;;22.20;55.30;;;;;;5032202;28;20443;-66
2024/02/09 12:59:48;;;;;;;14.27;13.90;;;22.30;55.30;;;;;;5032070;28;20559;-66
2024/02/09 13:02:17;;;;;;;14.40;14.00;;;22.30;55.40;;;;;;5032249;28;20472;-66
2024/02/09 13:04:44;;;;;;;13.83;13.43;;;22.30;55.30;;;;;;5031985;28;20929;-66
2024/02/09 13:07:11;;;;;;;13.30;13.00;;;22.30;55.30;;;;;;5032074;28;20483;-66
2024/02/09 13:09:39;;;;;;;13.83;13.50;;;22.30;55.30;;;;;;5032067;28;21010;-66
2024/02/09 13:12:07;;;;;;;13.63;13.23;;;22.30;55.30;;;;;;5031873;28;20473;-66
2024/02/09 13:14:37;;;;;;;12.83;12.53;;;22.30;55.30;;;;;;5031871;28;20473;-67
2024/02/09 13:17:04;;;;;;;13.00;12.70;;;22.30;55.30;;;;;;5031887;28;20441;-67
2024/02/09 13:19:31;;;;;;;13.67;13.17;;;22.30;55.30;;;;;;5031738;28;20516;-66
2024/02/09 13:22:01;;;;;;;12.87;12.57;;;22.30;55.30;;;;;;5031863;28;20499;-66
2024/02/09 13:24:29;;;;;;;13.00;12.70;;;22.30;55.30;;;;;;5031862;28;20457;-66
2024/02/09 13:26:57;;;;;;;13.17;12.87;;;22.30;55.30;;;;;;5031553;28;20548;-66
2024/02/09 13:29:24;;;;;;;13.63;13.33;;;22.30;55.20;;;;;;5031789;28;20962;-66
2024/02/09 13:31:51;;;;;;;14.10;13.70;;;22.30;55.30;;;;;;5031882;28;20449;-67
2024/02/09 13:34:18;;;;;;;14.63;14.23;;;22.30;55.30;;;;;;5031705;28;20469;-66
2024/02/09 13:36:45;;;;;;;13.87;13.57;;;22.30;55.20;;;;;;5031596;28;20465;-66
2024/02/09 13:39:13;;;;;;;14.07;13.77;;;22.30;55.20;;;;;;5031484;28;20473;-66
2024/02/09 13:41:41;;;;;;;14.50;14.10;;;22.30;55.20;;;;;;5031557;28;20472;-67
2024/02/09 13:44:09;;;;;;;13.40;13.10;;;22.30;55.30;;;;;;5031523;28;20472;-66
2024/02/09 13:46:36;;;;;;;13.30;13.00;;;22.30;55.20;;;;;;5031270;28;21004;-66
2024/02/09 13:49:04;;;;;;;13.40;13.10;;;22.30;55.20;;;;;;5031556;28;20871;-66
2024/02/09 13:51:31;;;;;;;13.40;13.10;;;22.30;55.20;;;;;;5031391;28;20540;-66
2024/02/09 13:54:00;;;;;;;13.20;12.80;;;22.30;55.20;;;;;;5031416;28;20469;-67
2024/02/09 13:56:27;;;;;;;14.20;13.80;;;22.30;55.30;;;;;;5031338;28;20496;-66
2024/02/09 13:58:54;;;;;;;13.40;13.10;;;22.30;55.20;;;;;;5031388;28;20813;-66
2024/02/09 14:01:22;;;;;;;14.50;14.10;;;22.30;55.20;;;;;;5031333;28;20512;-66
2024/02/09 14:03:50;;;;;;;14.70;14.30;;;22.30;55.30;;;;;;5031318;28;20445;-66
2024/02/09 14:06:18;;;;;;;14.70;14.27;;;22.30;55.20;;;;;;5031327;28;20460;-60
2024/02/09 14:08:47;;;;;;;14.07;13.67;;;22.30;55.20;;;;;;5016551;28;20449;-60
2024/02/09 14:11:14;;;;;;;14.53;14.13;;;22.20;55.60;;;;;;5035274;28;20892;-65
2024/02/09 14:13:41;;;;;;;14.50;14.10;;;22.30;56.40;;;;;;5035443;28;20469;-65
2024/02/09 14:16:08;;;;;;;14.77;14.37;;;22.20;56.60;;;;;;5035265;28;20468;-65
2024/02/09 14:18:36;;;;;;;15.00;14.50;;;22.30;57.00;;;;;;5033610;28;20476;-68
2024/02/09 14:21:05;;;;;;;12.80;12.40;;;22.20;56.70;;;;;;5018474;28;21228;-67